createdAt,value
2023-03-21T00:00:42.782Z,20.67
2023-03-21T00:03:09.529Z,17.95
2023-03-21T00:05:43.101Z,23.45
2023-03-21T00:08:09.874Z,19.52
2023-03-21T00:10:43.464Z,19.58
2023-03-21T00:13:15.055Z,21.27
2023-03-21T00:16:08.333Z,23.08
2023-03-21T00:18:42.594Z,29.50
2023-03-21T00:26:26.928Z,28.15
2023-03-21T00:28:53.458Z,29.80
2023-03-21T00:31:20.945Z,32.60
2023-03-21T00:33:49.582Z,32.65
2023-03-21T00:36:16.426Z,30.40
2023-03-21T00:38:43.411Z,37.72
2023-03-21T00:41:23.409Z,43.55
2023-03-21T00:43:58.242Z,35.13
2023-03-21T00:46:27.627Z,36.47
2023-03-21T00:48:56.967Z,34.88
2023-03-21T00:51:27.090Z,37.67
2023-03-21T00:53:56.075Z,34.40
2023-03-21T00:56:22.878Z,31.45
2023-03-21T00:58:49.806Z,34.58
2023-03-21T01:01:16.874Z,37.03
2023-03-21T01:03:50.882Z,38.50
2023-03-21T01:06:19.764Z,36.97
2023-03-21T01:08:52.716Z,32.85
2023-03-21T01:11:24.703Z,35.40
2023-03-21T01:13:57.795Z,40.67
2023-03-21T01:16:28.886Z,39.85
2023-03-21T01:18:56.223Z,41.83
2023-03-21T01:21:23.173Z,36.75
2023-03-21T01:23:49.747Z,37.58
2023-03-21T01:26:16.427Z,40.45
2023-03-21T01:28:45.376Z,33.40
2023-03-21T01:31:15.765Z,45.28
2023-03-21T01:33:43.093Z,50.30
2023-03-21T01:36:15.905Z,43.08
2023-03-21T01:38:43.970Z,38.92
2023-03-21T01:41:36.645Z,46.00
2023-03-21T01:44:19.063Z,43.75
2023-03-21T01:47:07.370Z,43.72
2023-03-21T01:49:49.695Z,42.78
2023-03-21T01:52:37.669Z,39.00
2023-03-21T01:55:12.779Z,47.03
2023-03-21T01:58:06.840Z,34.05
2023-03-21T02:00:55.143Z,39.10
2023-03-21T02:03:38.358Z,34.55
2023-03-21T02:06:35.329Z,33.05
2023-03-21T02:09:33.591Z,37.97
2023-03-21T02:12:01.446Z,33.30
2023-03-21T02:14:33.939Z,39.42
2023-03-21T02:17:15.065Z,37.63
2023-03-21T02:20:17.901Z,31.60
2023-03-21T02:22:56.956Z,31.40
2023-03-21T02:26:01.806Z,32.80
2023-03-21T02:28:41.798Z,31.58
2023-03-21T02:34:17.806Z,36.50
2023-03-21T02:37:05.626Z,35.92
2023-03-21T02:39:45.185Z,48.78
2023-03-21T02:45:19.324Z,32.72
2023-03-21T02:48:00.621Z,29.02
2023-03-21T02:50:37.518Z,35.65
2023-03-21T02:53:08.420Z,33.78
2023-03-21T02:55:37.472Z,32.45
2023-03-21T02:58:13.236Z,38.90
2023-03-21T03:00:47.417Z,34.38
2023-03-21T03:03:33.332Z,34.80
2023-03-21T03:06:03.952Z,40.25
2023-03-21T03:09:02.309Z,38.28
2023-03-21T03:11:43.081Z,41.10
2023-03-21T03:14:31.583Z,33.50
2023-03-21T03:17:28.538Z,30.60
2023-03-21T03:20:32.567Z,27.55
2023-03-21T03:23:25.292Z,33.13
2023-03-21T03:26:08.975Z,34.10
2023-03-21T03:28:45.828Z,28.30
2023-03-21T03:31:25.798Z,27.15
2023-03-21T03:34:02.164Z,25.95
2023-03-21T03:36:36.857Z,32.35
2023-03-21T03:39:11.198Z,26.75
2023-03-21T03:42:12.573Z,41.10
2023-03-21T03:44:37.853Z,32.38
2023-03-21T03:47:06.203Z,30.92
2023-03-21T03:49:41.922Z,24.15
2023-03-21T03:52:17.352Z,22.90
2023-03-21T03:57:16.688Z,30.92
2023-03-21T03:59:45.732Z,24.85
2023-03-21T04:02:21.830Z,28.55
2023-03-21T04:04:52.951Z,35.38
2023-03-21T04:07:22.255Z,26.25
2023-03-21T04:09:51.903Z,26.77
2023-03-21T04:12:20.475Z,21.60
2023-03-21T04:15:10.859Z,29.10
2023-03-21T04:17:41.833Z,22.85
2023-03-21T04:20:13.059Z,27.15
2023-03-21T04:22:43.704Z,29.38
2023-03-21T04:25:10.909Z,29.55
2023-03-21T04:27:37.835Z,23.55
2023-03-21T04:30:27.863Z,29.85
2023-03-21T04:33:04.979Z,24.40
2023-03-21T04:35:37.061Z,26.70
2023-03-21T04:38:05.504Z,25.52
2023-03-21T04:40:32.173Z,24.88
2023-03-21T04:43:01.177Z,31.38
2023-03-21T04:45:28.433Z,28.73
2023-03-21T04:47:55.887Z,22.85
2023-03-21T04:50:22.520Z,27.30
2023-03-21T04:52:49.129Z,24.42
2023-03-21T04:55:15.937Z,32.30
2023-03-21T04:57:42.643Z,28.00
2023-03-21T05:00:18.628Z,26.08
2023-03-21T05:02:46.125Z,27.13
2023-03-21T05:05:13.534Z,26.08
2023-03-21T05:07:41.255Z,25.15
2023-03-21T05:10:12.116Z,24.40
2023-03-21T05:12:41.376Z,30.88
2023-03-21T05:15:09.081Z,30.23
2023-03-21T05:17:36.627Z,26.67
2023-03-21T05:20:04.713Z,36.90
2023-03-21T05:25:12.209Z,31.67
2023-03-21T05:28:03.493Z,34.45
2023-03-21T05:30:31.349Z,34.20
2023-03-21T05:33:00.524Z,24.30
2023-03-21T05:35:27.578Z,28.75
2023-03-21T05:37:57.010Z,25.98
2023-03-21T05:40:25.128Z,34.33
2023-03-21T05:42:55.524Z,30.05
2023-03-21T05:45:23.267Z,31.95
2023-03-21T05:47:51.521Z,32.47
2023-03-21T05:50:20.759Z,34.03
2023-03-21T05:53:00.878Z,32.05
2023-03-21T05:55:28.031Z,29.77
2023-03-21T05:57:56.554Z,37.72
2023-03-21T06:00:27.956Z,30.77
2023-03-21T06:03:18.585Z,34.97
2023-03-21T06:05:58.773Z,33.85
2023-03-21T06:08:32.736Z,43.17
2023-03-21T06:11:00.147Z,30.30
2023-03-21T06:13:26.864Z,30.55
2023-03-21T06:15:53.679Z,27.13
2023-03-21T06:18:23.846Z,34.40
2023-03-21T06:20:58.926Z,29.83
2023-03-21T06:23:25.770Z,32.20
2023-03-21T06:25:53.324Z,25.50
2023-03-21T06:28:20.472Z,30.75
2023-03-21T06:30:47.017Z,27.40
2023-03-21T06:33:18.667Z,28.52
2023-03-21T06:35:50.353Z,35.22
2023-03-21T06:38:17.531Z,34.25
2023-03-21T06:40:46.935Z,30.38
2023-03-21T06:43:14.297Z,33.95
2023-03-21T06:45:40.991Z,32.80
2023-03-21T06:48:10.380Z,28.70
2023-03-21T06:50:44.605Z,28.33
2023-03-21T06:53:11.161Z,30.17
2023-03-21T06:55:57.649Z,31.73
2023-03-21T06:58:24.665Z,29.75
2023-03-21T07:00:51.341Z,30.45
2023-03-21T07:03:19.185Z,29.17
2023-03-21T07:05:46.773Z,28.23
2023-03-21T07:08:15.287Z,31.83
2023-03-21T07:10:45.420Z,22.63
2023-03-21T07:13:13.446Z,27.48
2023-03-21T07:16:02.766Z,25.48
2023-03-21T07:18:30.878Z,24.45
2023-03-21T07:20:57.477Z,25.33
2023-03-21T07:23:25.873Z,28.58
2023-03-21T07:28:21.053Z,21.35
2023-03-21T07:30:57.466Z,31.73
2023-03-21T07:33:26.236Z,24.40
2023-03-21T07:35:57.858Z,27.70
2023-03-21T07:38:24.755Z,28.38
2023-03-21T07:40:51.755Z,25.80
2023-03-21T07:45:57.189Z,23.60
2023-03-21T07:48:23.908Z,27.75
2023-03-21T07:50:51.024Z,28.35
2023-03-21T07:53:17.832Z,27.38
2023-03-21T07:55:44.463Z,29.88
2023-03-21T07:58:11.095Z,24.52
2023-03-21T08:00:37.663Z,24.15
2023-03-21T08:03:04.368Z,33.08
2023-03-21T08:05:35.620Z,25.00
2023-03-21T08:08:02.601Z,22.63
2023-03-21T08:10:29.250Z,26.92
2023-03-21T08:12:55.947Z,31.33
2023-03-21T08:15:22.964Z,26.45
2023-03-21T08:17:49.735Z,24.52
2023-03-21T08:20:21.695Z,28.55
2023-03-21T08:22:49.507Z,24.48
2023-03-21T08:25:18.373Z,27.88
2023-03-21T08:27:46.601Z,27.67
2023-03-21T08:30:16.664Z,27.80
2023-03-21T08:32:43.667Z,31.63
2023-03-21T08:35:13.805Z,31.90
2023-03-21T08:37:42.425Z,32.22
2023-03-21T08:40:13.328Z,28.93
2023-03-21T08:42:41.688Z,27.13
2023-03-21T08:45:09.236Z,30.63
2023-03-21T08:47:35.972Z,35.60
2023-03-21T08:50:06.636Z,32.85
2023-03-21T08:52:33.805Z,34.35
2023-03-21T08:55:02.127Z,35.72
2023-03-21T08:57:29.188Z,32.78
2023-03-21T08:59:55.766Z,35.28
2023-03-21T09:02:22.519Z,31.27
2023-03-21T09:04:49.193Z,30.88
2023-03-21T09:07:18.003Z,33.65
2023-03-21T09:09:47.614Z,36.83
2023-03-21T09:12:17.333Z,29.88
2023-03-21T09:14:43.943Z,38.72
2023-03-21T09:17:10.593Z,42.90
2023-03-21T09:19:38.805Z,37.95
2023-03-21T09:22:05.993Z,33.65
2023-03-21T09:24:32.894Z,42.33
2023-03-21T09:26:59.501Z,32.00
2023-03-21T09:29:26.904Z,37.30
2023-03-21T09:31:53.857Z,33.78
2023-03-21T09:34:20.858Z,43.95
2023-03-21T09:36:48.505Z,38.42
2023-03-21T09:39:16.192Z,33.40
2023-03-21T09:42:00.969Z,40.10
2023-03-21T09:44:37.959Z,33.72
2023-03-21T09:47:34.705Z,42.30
2023-03-21T09:50:14.477Z,35.45
2023-03-21T09:53:07.273Z,34.30
2023-03-21T09:55:38.536Z,33.35
2023-03-21T09:58:20.461Z,35.40
2023-03-21T10:00:53.584Z,50.75
2023-03-21T10:03:24.487Z,42.22
2023-03-21T10:05:52.862Z,35.50
2023-03-21T10:08:27.443Z,34.40
2023-03-21T10:10:58.951Z,39.67
2023-03-21T10:13:32.188Z,34.50
2023-03-21T10:16:02.121Z,37.47
2023-03-21T10:18:31.733Z,36.45
2023-03-21T10:23:29.781Z,37.55
2023-03-21T10:26:01.071Z,42.88
2023-03-21T10:28:49.919Z,38.97
2023-03-21T10:31:28.409Z,36.55
2023-03-21T10:33:57.811Z,35.22
2023-03-21T10:36:27.252Z,27.75
2023-03-21T10:38:57.245Z,32.85
2023-03-21T10:41:23.877Z,31.30
2023-03-21T10:44:14.470Z,30.95
2023-03-21T10:46:56.037Z,29.88
2023-03-21T10:49:23.344Z,35.53
2023-03-21T10:51:52.850Z,34.15
2023-03-21T10:54:22.287Z,31.20
2023-03-21T10:57:00.960Z,31.98
2023-03-21T10:59:35.784Z,29.27
2023-03-21T11:02:04.328Z,30.10
2023-03-21T11:04:31.219Z,28.00
2023-03-21T11:07:07.435Z,27.55
2023-03-21T11:09:53.498Z,26.23
2023-03-21T11:12:39.683Z,28.08
2023-03-21T11:15:42.862Z,30.27
2023-03-21T11:18:26.009Z,27.88
2023-03-21T11:20:58.541Z,27.13
2023-03-21T11:23:28.808Z,30.20
2023-03-21T11:25:56.013Z,22.83
2023-03-21T11:28:28.541Z,22.73
2023-03-21T11:30:58.257Z,33.55
2023-03-21T11:33:36.565Z,25.98
2023-03-21T11:36:07.906Z,26.95
2023-03-21T11:38:39.839Z,25.10
2023-03-21T11:41:07.495Z,23.55
2023-03-21T11:43:39.289Z,24.13
2023-03-21T11:46:13.967Z,22.80
2023-03-21T11:48:43.901Z,27.48
2023-03-21T11:51:35.285Z,27.02
2023-03-21T11:54:14.225Z,28.10
2023-03-21T11:56:47.582Z,29.83
2023-03-21T11:59:23.211Z,24.75
2023-03-21T12:02:14.632Z,29.88
2023-03-21T12:04:47.037Z,22.45
2023-03-21T12:07:26.421Z,25.27
2023-03-21T12:10:09.100Z,22.83
2023-03-21T12:12:58.716Z,25.55
2023-03-21T12:16:13.916Z,25.45
2023-03-21T12:19:12.318Z,23.55
2023-03-21T12:22:21.318Z,23.95
2023-03-21T12:24:54.893Z,25.15
2023-03-21T12:27:43.182Z,27.08
2023-03-21T12:30:09.748Z,22.63
2023-03-21T12:33:08.711Z,26.33
2023-03-21T12:35:38.482Z,23.83
2023-03-21T12:38:39.448Z,22.95
2023-03-21T12:41:35.293Z,17.90
2023-03-21T12:44:10.350Z,20.52
2023-03-21T12:46:52.764Z,25.20
2023-03-21T12:49:42.995Z,19.35
2023-03-21T12:52:16.505Z,23.90
2023-03-21T12:54:51.146Z,25.23
2023-03-21T12:57:32.680Z,21.10
2023-03-21T13:00:10.724Z,19.55
2023-03-21T13:02:59.946Z,19.85
2023-03-21T13:05:32.880Z,17.35
2023-03-21T13:08:22.729Z,18.13
2023-03-21T13:10:49.502Z,14.38
2023-03-21T13:13:27.030Z,17.20
2023-03-21T13:16:27.808Z,16.13
2023-03-21T13:19:20.815Z,17.30
2023-03-21T13:22:09.092Z,18.77
2023-03-21T13:24:47.145Z,12.60
2023-03-21T13:27:29.496Z,16.70
2023-03-21T13:30:17.827Z,18.75
2023-03-21T13:32:48.407Z,15.80
2023-03-21T13:35:19.779Z,14.98
2023-03-21T13:37:53.385Z,13.40
2023-03-21T13:40:23.489Z,17.92
2023-03-21T13:42:57.021Z,13.73
2023-03-21T13:45:28.806Z,10.55
2023-03-21T13:47:58.544Z,10.02
2023-03-21T13:50:29.498Z,14.85
2023-03-21T13:53:02.022Z,12.77
2023-03-21T13:55:30.841Z,11.27
2023-03-21T13:57:57.428Z,9.80
2023-03-21T14:00:30.880Z,14.32
2023-03-21T14:03:09.793Z,9.68
2023-03-21T14:05:37.599Z,9.20
2023-03-21T14:08:21.590Z,11.88
2023-03-21T14:10:59.689Z,9.07
2023-03-21T14:13:27.722Z,10.43
2023-03-21T14:16:00.911Z,11.65
2023-03-21T14:18:52.316Z,9.43
2023-03-21T14:21:25.494Z,11.32
2023-03-21T14:24:06.457Z,10.80
2023-03-21T14:26:36.186Z,8.75
2023-03-21T14:29:22.853Z,9.23
2023-03-21T14:31:51.644Z,7.90
2023-03-21T14:34:18.552Z,7.22
2023-03-21T14:36:56.901Z,7.30
2023-03-21T14:39:28.868Z,12.60
2023-03-21T14:42:02.158Z,8.20
2023-03-21T14:44:53.479Z,11.13
2023-03-21T14:47:21.242Z,9.85
2023-03-21T14:49:49.359Z,7.80
2023-03-21T14:52:26.390Z,7.63
2023-03-21T14:54:55.260Z,12.40
2023-03-21T14:57:25.680Z,7.20
2023-03-21T14:59:54.827Z,7.03
2023-03-21T15:02:26.767Z,5.30
2023-03-21T15:04:57.150Z,9.02
2023-03-21T15:07:33.507Z,9.60
2023-03-21T15:10:21.709Z,7.55
2023-03-21T15:13:12.642Z,8.30
2023-03-21T15:15:40.530Z,13.70
2023-03-21T15:18:08.676Z,7.93
2023-03-21T15:20:38.074Z,7.90
2023-03-21T15:23:15.630Z,7.35
2023-03-21T15:25:43.145Z,12.77
2023-03-21T15:28:13.858Z,9.15
2023-03-21T15:30:49.115Z,6.63
2023-03-21T15:33:16.468Z,10.27
2023-03-21T15:35:46.130Z,5.25
2023-03-21T15:38:39.900Z,8.52
2023-03-21T15:41:21.600Z,7.47
2023-03-21T15:44:09.106Z,7.78
2023-03-21T15:46:50.459Z,6.03
2023-03-21T15:49:32.881Z,7.82
2023-03-21T15:52:15.716Z,8.18
2023-03-21T15:54:44.088Z,7.50
2023-03-21T15:57:24.052Z,6.75
2023-03-21T15:59:55.848Z,4.28
2023-03-21T16:02:25.217Z,5.30
2023-03-21T16:05:23.892Z,6.35
2023-03-21T16:07:50.616Z,9.57
2023-03-21T16:10:29.531Z,5.93
2023-03-21T16:12:56.299Z,4.65
2023-03-21T16:15:25.742Z,5.47
2023-03-21T16:18:01.925Z,5.35
2023-03-21T16:20:34.170Z,8.20
2023-03-21T16:23:01.561Z,6.97
2023-03-21T16:25:30.015Z,10.80
2023-03-21T16:27:57.078Z,6.10
2023-03-21T16:30:24.035Z,4.70
2023-03-21T16:32:51.449Z,4.30
2023-03-21T16:35:18.670Z,4.97
2023-03-21T16:37:47.999Z,4.55
2023-03-21T16:40:31.559Z,5.53
2023-03-21T16:42:58.180Z,6.40
2023-03-21T16:45:25.051Z,6.55
2023-03-21T16:47:51.991Z,4.75
2023-03-21T16:50:25.212Z,5.53
2023-03-21T16:52:52.241Z,3.58
2023-03-21T16:55:19.817Z,4.75
2023-03-21T16:57:47.032Z,7.15
2023-03-21T17:00:20.530Z,10.25
2023-03-21T17:02:47.986Z,8.15
2023-03-21T17:05:15.029Z,6.22
2023-03-21T17:07:44.022Z,7.78
2023-03-21T17:10:15.339Z,7.60
2023-03-21T17:12:41.915Z,7.00
2023-03-21T17:15:09.511Z,5.68
2023-03-21T17:17:36.767Z,6.47
2023-03-21T17:20:15.057Z,5.40
2023-03-21T17:22:42.204Z,4.15
2023-03-21T17:25:09.074Z,5.60
2023-03-21T17:27:39.392Z,8.48
2023-03-21T17:30:27.561Z,3.83
2023-03-21T17:32:54.769Z,5.15
2023-03-21T17:35:23.444Z,11.65
2023-03-21T17:37:51.410Z,7.30
2023-03-21T17:40:24.802Z,7.25
2023-03-21T17:42:51.971Z,5.93
2023-03-21T17:45:20.002Z,5.35
2023-03-21T17:47:47.314Z,8.05
2023-03-21T17:50:18.856Z,6.18
2023-03-21T17:52:46.056Z,7.97
2023-03-21T17:55:14.719Z,6.55
2023-03-21T17:57:41.313Z,5.40
2023-03-21T18:00:14.215Z,6.32
2023-03-21T18:02:41.623Z,7.03
2023-03-21T18:05:09.537Z,4.55
2023-03-21T18:10:28.187Z,6.93
2023-03-21T18:12:58.319Z,5.53
2023-03-21T18:15:30.110Z,9.80
2023-03-21T18:17:57.666Z,6.60
2023-03-21T18:20:45.519Z,4.47
2023-03-21T18:23:14.291Z,10.35
2023-03-21T18:25:41.754Z,5.78
2023-03-21T18:28:11.972Z,6.18
2023-03-21T18:30:56.841Z,9.32
2023-03-21T18:33:27.266Z,6.22
2023-03-21T18:35:59.064Z,7.90
2023-03-21T18:38:27.735Z,7.07
2023-03-21T18:40:55.376Z,9.65
2023-03-21T18:46:09.196Z,8.90
2023-03-21T18:48:36.068Z,6.63
2023-03-21T18:51:03.689Z,6.97
2023-03-21T18:53:30.252Z,8.07
2023-03-21T18:55:57.492Z,9.68
2023-03-21T18:58:25.113Z,9.30
2023-03-21T19:00:53.539Z,6.65
2023-03-21T19:03:34.113Z,9.15
2023-03-21T19:06:03.915Z,11.18
2023-03-21T19:08:31.191Z,15.50
2023-03-21T19:11:00.139Z,12.95
2023-03-21T19:13:30.170Z,18.23
2023-03-21T19:15:57.117Z,17.10
2023-03-21T19:18:41.676Z,12.23
2023-03-21T19:21:10.448Z,14.00
2023-03-21T19:24:15.154Z,11.52
2023-03-21T19:26:27.582Z,10.10
2023-03-21T19:28:54.704Z,9.50
2023-03-21T19:31:21.974Z,7.40
2023-03-21T19:33:48.721Z,12.40
2023-03-21T19:36:21.858Z,9.30
2023-03-21T19:38:49.224Z,9.32
2023-03-21T19:41:16.488Z,11.50
2023-03-21T19:43:53.779Z,9.98
2023-03-21T19:46:24.846Z,13.27
2023-03-21T19:48:56.307Z,13.70
2023-03-21T19:51:28.601Z,10.43
2023-03-21T19:53:56.539Z,12.35
2023-03-21T19:56:26.440Z,13.63
2023-03-21T19:58:55.210Z,11.10
2023-03-21T20:01:22.361Z,10.18
2023-03-21T20:03:49.149Z,14.55
2023-03-21T20:06:16.585Z,12.35
2023-03-21T20:09:27.626Z,10.85
2023-03-21T20:11:29.770Z,11.73
2023-03-21T20:13:56.563Z,11.60
2023-03-21T20:16:23.241Z,10.40
2023-03-21T20:18:50.028Z,8.20
2023-03-21T20:21:18.503Z,9.90
2023-03-21T20:23:50.834Z,8.75
2023-03-21T20:26:18.374Z,8.27
2023-03-21T20:29:01.095Z,8.75
2023-03-21T20:31:37.683Z,8.30
2023-03-21T20:34:04.456Z,13.20
2023-03-21T20:36:41.112Z,13.55
2023-03-21T20:39:09.454Z,11.88
2023-03-21T20:41:36.102Z,9.15
2023-03-21T20:46:49.930Z,9.07
2023-03-21T20:49:16.690Z,10.98
2023-03-21T20:54:30.269Z,10.63
2023-03-21T20:56:57.216Z,10.45
2023-03-21T20:59:27.761Z,8.45
2023-03-21T21:01:57.192Z,9.43
2023-03-21T21:04:44.346Z,10.23
2023-03-21T21:07:15.973Z,10.63
2023-03-21T21:09:45.324Z,11.98
2023-03-21T21:12:13.655Z,10.88
2023-03-21T21:14:41.254Z,9.97
2023-03-21T21:17:24.554Z,10.20
2023-03-21T21:19:55.328Z,9.07
2023-03-21T21:22:21.926Z,11.15
2023-03-21T21:24:48.539Z,11.13
2023-03-21T21:27:15.082Z,11.80
2023-03-21T21:29:43.395Z,13.38
2023-03-21T21:32:11.157Z,9.93
2023-03-21T21:34:38.052Z,12.68
2023-03-21T21:37:05.072Z,11.45
2023-03-21T21:39:35.133Z,11.38
2023-03-21T21:42:02.242Z,12.60
2023-03-21T21:44:28.791Z,12.40
2023-03-21T21:46:55.443Z,13.75
2023-03-21T21:49:22.052Z,13.93
2023-03-21T21:51:48.676Z,11.18
2023-03-21T21:54:18.232Z,13.45
2023-03-21T21:56:48.570Z,10.95
2023-03-21T21:59:21.930Z,11.90
2023-03-21T22:01:51.201Z,11.38
2023-03-21T22:04:27.558Z,11.30
2023-03-21T22:06:57.233Z,13.38
2023-03-21T22:09:23.930Z,11.65
2023-03-21T22:11:50.510Z,13.25
2023-03-21T22:14:17.195Z,11.13
2023-03-21T22:16:43.997Z,11.32
2023-03-21T22:19:10.711Z,12.63
2023-03-21T22:21:37.324Z,11.15
2023-03-21T22:24:04.151Z,12.57
2023-03-21T22:26:30.694Z,14.38
2023-03-21T22:28:58.374Z,13.57
2023-03-21T22:31:26.333Z,9.88
2023-03-21T22:33:53.066Z,12.25
2023-03-21T22:36:20.118Z,13.73
2023-03-21T22:38:47.811Z,12.82
2023-03-21T22:41:14.441Z,14.63
2023-03-21T22:43:43.036Z,10.55
2023-03-21T22:46:09.635Z,11.90
2023-03-21T22:48:36.246Z,11.52
2023-03-21T22:51:02.924Z,12.93
2023-03-21T22:53:29.783Z,12.45
2023-03-21T22:55:56.592Z,14.45
2023-03-21T22:58:23.594Z,11.80
2023-03-21T23:00:50.328Z,9.95
2023-03-21T23:03:17.053Z,11.88
2023-03-21T23:05:44.945Z,13.43
2023-03-21T23:08:12.874Z,14.45
2023-03-21T23:10:41.317Z,15.75
2023-03-21T23:13:08.103Z,10.33
2023-03-21T23:15:34.708Z,11.73
2023-03-21T23:18:01.385Z,11.55
2023-03-21T23:20:28.095Z,11.48
2023-03-21T23:22:54.878Z,11.32
2023-03-21T23:25:21.787Z,13.35
2023-03-21T23:27:48.382Z,14.18
2023-03-21T23:30:16.564Z,13.50
2023-03-21T23:32:43.168Z,13.23
2023-03-21T23:35:11.357Z,13.05
2023-03-21T23:37:38.178Z,11.50
2023-03-21T23:40:08.983Z,10.32
2023-03-21T23:42:36.892Z,13.38
2023-03-21T23:45:04.053Z,12.55
2023-03-21T23:47:31.041Z,11.48
2023-03-21T23:49:57.912Z,14.68
2023-03-21T23:52:24.483Z,13.68
2023-03-21T23:54:51.161Z,12.45
2023-03-21T23:57:17.990Z,11.75
2023-03-21T23:59:46.850Z,10.63
